Time;durP1;ratioP1;P1;durP2;ratioP2;P2;SDS_P1;SDS_P2;PMS_P1;PMS_P2;Temp;Humidity;BMP_temperature;BMP_pressure;BME280_temperature;BME280_humidity;BME280_pressure;Samples;Min_cycle;Max_cycle;Signal;HPM_P1;HPM_P2
2021/11/14 00:01:12;;;;;;;1.40;1.30;;;9.90;99.90;;;;;;5054181;28;20504;-71
2021/11/14 00:03:40;;;;;;;0.93;0.80;;;9.90;99.90;;;;;;5054593;28;20534;-72
2021/11/14 00:06:07;;;;;;;0.83;0.70;;;9.90;99.90;;;;;;5050271;28;20414;-71
2021/11/14 00:08:33;;;;;;;2.00;1.90;;;9.90;99.90;;;;;;5038199;28;20436;-71
2021/11/14 00:11:05;;;;;;;3.17;1.37;;;9.90;99.90;;;;;;5053785;28;20786;-71
2021/11/14 00:13:30;;;;;;;1.10;0.97;;;9.90;99.90;;;;;;5054247;28;20405;-71
2021/11/14 00:15:56;;;;;;;1.00;0.80;;;9.90;99.90;;;;;;5053959;28;20453;-71
2021/11/14 00:18:22;;;;;;;0.70;0.50;;;9.80;99.90;;;;;;5053910;28;20178;-72
2021/11/14 00:20:49;;;;;;;0.70;0.60;;;9.90;99.90;;;;;;5053857;28;20175;-71
2021/11/14 00:23:15;;;;;;;2.70;2.50;;;9.90;99.90;;;;;;5048878;28;20398;-71
2021/11/14 00:25:41;;;;;;;1.13;1.03;;;9.90;99.90;;;;;;5049612;28;20425;-72
2021/11/14 00:28:09;;;;;;;1.00;1.00;;;9.80;99.90;;;;;;5053940;28;20680;-71
2021/11/14 00:30:35;;;;;;;0.70;0.50;;;9.80;99.90;;;;;;5053293;28;20479;-71
2021/11/14 00:33:02;;;;;;;0.70;0.60;;;9.80;99.90;;;;;;5053718;28;20401;-72
2021/11/14 00:35:28;;;;;;;1.00;0.90;;;9.80;99.90;;;;;;5052720;28;20479;-72
2021/11/14 00:37:54;;;;;;;0.70;0.60;;;9.80;99.90;;;;;;5053793;28;20425;-72
2021/11/14 00:40:23;;;;;;;0.70;0.60;;;9.70;99.90;;;;;;5049758;28;20465;-72
2021/11/14 00:42:49;;;;;;;2.10;2.00;;;9.70;99.90;;;;;;5053487;28;20471;-71
2021/11/14 00:45:15;;;;;;;0.90;0.70;;;9.70;99.90;;;;;;5053341;28;20417;-71
2021/11/14 00:47:42;;;;;;;0.70;0.63;;;9.80;99.90;;;;;;5053709;28;21074;-71
2021/11/14 00:50:11;;;;;;;5.70;0.90;;;9.70;99.90;;;;;;5053310;28;20467;-71
2021/11/14 00:52:41;;;;;;;0.80;0.80;;;9.80;99.90;;;;;;5052264;28;20850;-71
2021/11/14 00:55:08;;;;;;;0.70;0.50;;;9.70;99.90;;;;;;5053298;28;20409;-71
2021/11/14 00:57:34;;;;;;;0.70;0.60;;;9.70;99.90;;;;;;5053009;28;20429;-71
2021/11/14 01:00:00;;;;;;;0.70;0.50;;;9.70;99.90;;;;;;5053270;28;20806;-71
2021/11/14 01:02:26;;;;;;;1.90;1.80;;;9.70;99.90;;;;;;5053112;28;20262;-71
2021/11/14 01:04:52;;;;;;;0.77;0.70;;;9.70;99.90;;;;;;5053212;28;20405;-72
2021/11/14 01:07:17;;;;;;;0.80;0.70;;;9.70;99.90;;;;;;5053094;28;20668;-71
2021/11/14 01:09:43;;;;;;;0.70;0.57;;;9.60;99.90;;;;;;5053075;28;20297;-71
2021/11/14 01:12:10;;;;;;;1.57;1.47;;;9.70;99.90;;;;;;5051711;28;20236;-72
2021/11/14 01:14:36;;;;;;;0.80;0.70;;;9.70;99.90;;;;;;5053166;28;20258;-71
2021/11/14 01:17:03;;;;;;;0.80;0.80;;;9.70;99.90;;;;;;5052825;28;20453;-72
2021/11/14 01:19:29;;;;;;;0.70;0.60;;;9.70;99.90;;;;;;5052726;28;20430;-71
2021/11/14 01:21:55;;;;;;;0.70;0.63;;;9.60;99.90;;;;;;5052882;28;20914;-71
2021/11/14 01:24:20;;;;;;;0.87;0.87;;;9.60;99.90;;;;;;5052976;28;20170;-71
2021/11/14 01:26:46;;;;;;;0.70;0.50;;;9.60;99.90;;;;;;5052191;28;20189;-71
2021/11/14 01:29:11;;;;;;;0.87;0.77;;;9.60;99.90;;;;;;5052658;28;20226;-71
2021/11/14 01:31:37;;;;;;;1.07;0.87;;;9.60;99.90;;;;;;5052575;28;20257;-71
2021/11/14 01:34:03;;;;;;;0.70;0.60;;;9.60;99.90;;;;;;5052830;28;20166;-71
2021/11/14 01:36:32;;;;;;;1.00;0.80;;;9.60;99.90;;;;;;5052455;28;20962;-72
2021/11/14 01:38:59;;;;;;;2.50;2.30;;;9.60;99.90;;;;;;5052426;28;20183;-71
2021/11/14 01:41:25;;;;;;;0.70;0.50;;;9.60;99.90;;;;;;5052115;28;20429;-71
2021/11/14 01:43:52;;;;;;;0.90;0.60;;;9.60;99.90;;;;;;5051328;28;20419;-71
2021/11/14 01:46:18;;;;;;;0.70;0.50;;;9.60;99.90;;;;;;5052197;28;20178;-71
2021/11/14 01:48:45;;;;;;;0.70;0.50;;;9.60;99.90;;;;;;5052428;28;20433;-70
2021/11/14 01:51:11;;;;;;;1.23;1.13;;;9.60;99.90;;;;;;5051926;28;20421;-70
2021/11/14 01:53:37;;;;;;;2.50;1.27;;;9.60;99.90;;;;;;5050730;28;20912;-71
2021/11/14 01:56:06;;;;;;;3.00;2.00;;;9.60;99.90;;;;;;5051896;28;20835;-72
2021/11/14 01:58:32;;;;;;;0.80;0.77;;;9.60;99.90;;;;;;5052385;28;20520;-71
2021/11/14 02:01:05;;;;;;;0.97;0.87;;;9.60;99.90;;;;;;5052087;28;20535;-71
2021/11/14 02:03:32;;;;;;;0.70;0.50;;;9.60;99.90;;;;;;5051774;28;20716;-71
2021/11/14 02:05:59;;;;;;;7.77;1.20;;;9.60;99.90;;;;;;5052005;28;20417;-71
2021/11/14 02:08:25;;;;;;;0.80;0.80;;;9.60;99.90;;;;;;5051942;28;20445;-71
2021/11/14 02:10:50;;;;;;;0.70;0.70;;;9.60;99.90;;;;;;5052064;28;20433;-71
2021/11/14 02:13:17;;;;;;;3.80;1.40;;;9.60;99.90;;;;;;5051848;28;20210;-71
2021/11/14 02:15:42;;;;;;;0.70;0.50;;;9.60;99.90;;;;;;5050517;28;20572;-71
2021/11/14 02:18:12;;;;;;;0.70;0.50;;;9.60;99.90;;;;;;5051940;28;20424;-71
2021/11/14 02:20:38;;;;;;;1.43;1.33;;;9.60;99.90;;;;;;5051787;28;20198;-72
2021/11/14 02:23:06;;;;;;;0.70;0.50;;;9.60;99.90;;;;;;5051400;28;20420;-71
2021/11/14 02:25:32;;;;;;;0.70;0.60;;;9.60;99.90;;;;;;5051435;28;20414;-71
2021/11/14 02:27:58;;;;;;;0.70;0.70;;;9.60;99.90;;;;;;5051526;28;20429;-72
2021/11/14 02:30:26;;;;;;;0.70;0.60;;;9.60;99.90;;;;;;5050432;28;20486;-72
2021/11/14 02:32:53;;;;;;;1.63;1.53;;;9.60;99.90;;;;;;5051949;28;20774;-71
2021/11/14 02:35:20;;;;;;;0.93;0.63;;;9.60;99.90;;;;;;5051327;28;20460;-71
2021/11/14 02:37:46;;;;;;;0.70;0.50;;;9.60;99.90;;;;;;5050900;28;20421;-71
2021/11/14 02:40:13;;;;;;;0.70;0.50;;;9.50;99.90;;;;;;5051651;28;20771;-71
2021/11/14 02:42:40;;;;;;;0.97;0.90;;;9.60;99.90;;;;;;5051485;28;20175;-71
2021/11/14 02:45:08;;;;;;;1.13;1.03;;;9.60;99.90;;;;;;5051524;28;20954;-71
2021/11/14 02:47:35;;;;;;;0.80;0.80;;;9.60;99.90;;;;;;5051852;28;20428;-71
2021/11/14 02:50:01;;;;;;;0.80;0.70;;;9.60;99.90;;;;;;5051430;28;20923;-71
2021/11/14 02:52:26;;;;;;;1.17;0.80;;;9.60;99.90;;;;;;5051142;28;20927;-71
2021/11/14 02:54:52;;;;;;;0.70;0.50;;;9.50;99.90;;;;;;5051401;28;20438;-71
2021/11/14 02:57:18;;;;;;;3.13;2.20;;;9.60;99.90;;;;;;5051307;28;20252;-71
2021/11/14 02:59:43;;;;;;;0.70;0.50;;;9.50;99.90;;;;;;5051275;28;20277;-72
2021/11/14 03:02:09;;;;;;;1.00;0.83;;;9.50;99.90;;;;;;5051473;28;20670;-71
2021/11/14 03:04:34;;;;;;;0.80;0.70;;;9.50;99.90;;;;;;5051244;28;20171;-71
2021/11/14 03:07:00;;;;;;;0.70;0.60;;;9.50;99.90;;;;;;5049962;28;20178;-71
2021/11/14 03:09:27;;;;;;;0.70;0.63;;;9.60;99.90;;;;;;5051565;28;20598;-71
2021/11/14 03:11:55;;;;;;;0.70;0.50;;;9.60;99.90;;;;;;5051354;28;20433;-71
2021/11/14 03:14:22;;;;;;;0.80;0.70;;;9.50;99.90;;;;;;5031937;28;20434;-71
2021/11/14 03:16:48;;;;;;;1.07;0.97;;;9.50;99.90;;;;;;5043035;28;20547;-72
2021/11/14 03:19:14;;;;;;;0.70;0.50;;;9.50;99.90;;;;;;5055201;28;20191;-71
2021/11/14 03:21:39;;;;;;;0.83;0.83;;;9.50;99.90;;;;;;5055237;28;20824;-71
2021/11/14 03:24:05;;;;;;;0.83;0.83;;;9.50;99.90;;;;;;5054811;28;20425;-71
2021/11/14 03:26:31;;;;;;;1.57;1.47;;;9.50;99.90;;;;;;5054935;28;20976;-71
2021/11/14 03:28:57;;;;;;;0.80;0.70;;;9.50;99.90;;;;;;5054874;28;20468;-71
2021/11/14 03:31:26;;;;;;;1.57;0.70;;;9.50;99.90;;;;;;5055276;28;20686;-72
2021/11/14 03:33:51;;;;;;;1.37;1.27;;;9.50;99.90;;;;;;5055080;28;20640;-72
2021/11/14 03:36:17;;;;;;;0.70;0.50;;;9.50;99.90;;;;;;5054539;28;20453;-71
2021/11/14 03:38:53;;;;;;;0.70;0.47;;;9.50;99.90;;;;;;5054958;28;20548;-71
2021/11/14 03:41:22;;;;;;;1.17;0.97;;;9.50;99.90;;;;;;5054665;28;20632;-71
2021/11/14 03:43:49;;;;;;;0.80;0.77;;;9.50;99.90;;;;;;5054819;28;20413;-72
2021/11/14 03:46:15;;;;;;;1.40;1.30;;;9.40;99.90;;;;;;5054586;28;20480;-71
2021/11/14 03:48:43;;;;;;;1.37;1.23;;;9.50;99.90;;;;;;5054443;28;20452;-71
2021/11/14 03:51:10;;;;;;;1.20;1.10;;;9.50;99.90;;;;;;5054692;28;20900;-71
2021/11/14 03:53:36;;;;;;;1.27;1.13;;;9.50;99.90;;;;;;5054574;28;20421;-71
2021/11/14 03:56:03;;;;;;;0.70;0.53;;;9.50;99.90;;;;;;5054036;28;20495;-71
2021/11/14 03:58:29;;;;;;;0.70;0.60;;;9.50;99.90;;;;;;5069908;28;20535;-71
2021/11/14 04:00:57;;;;;;;0.80;0.70;;;9.50;99.90;;;;;;5054410;28;20448;-71
2021/11/14 04:03:23;;;;;;;0.70;0.50;;;9.50;99.90;;;;;;5054582;28;20249;-71
2021/11/14 04:05:49;;;;;;;0.97;0.87;;;9.50;99.90;;;;;;5054007;28;20433;-71
2021/11/14 04:08:19;;;;;;;0.77;0.60;;;9.50;99.90;;;;;;5053921;28;20435;-71
2021/11/14 04:10:47;;;;;;;0.70;0.50;;;9.50;99.90;;;;;;5053966;28;20418;-71
2021/11/14 04:13:14;;;;;;;0.70;0.60;;;9.50;99.90;;;;;;5054401;28;21005;-71
2021/11/14 04:15:40;;;;;;;0.70;0.57;;;9.50;99.90;;;;;;5053823;28;20476;-70
2021/11/14 04:18:06;;;;;;;1.13;1.03;;;9.50;99.90;;;;;;5054017;28;20449;-70
2021/11/14 04:20:34;;;;;;;0.70;0.50;;;9.50;99.90;;;;;;5054203;28;20536;-70
2021/11/14 04:23:01;;;;;;;0.80;0.70;;;9.50;99.90;;;;;;5054239;28;20401;-70
2021/11/14 04:25:27;;;;;;;0.70;0.53;;;9.50;99.90;;;;;;5053896;28;20483;-71
2021/11/14 04:27:55;;;;;;;1.13;1.00;;;9.50;99.90;;;;;;5052766;28;20432;-70
2021/11/14 04:30:21;;;;;;;1.40;1.30;;;9.50;99.90;;;;;;5054043;28;20424;-71
2021/11/14 04:32:48;;;;;;;0.80;0.80;;;9.40;99.90;;;;;;5053710;28;20825;-71
2021/11/14 04:35:14;;;;;;;0.70;0.60;;;9.40;99.90;;;;;;5053700;28;20401;-70
2021/11/14 04:37:39;;;;;;;1.87;1.77;;;9.40;99.90;;;;;;5053757;28;20420;-70
2021/11/14 04:40:07;;;;;;;0.90;0.70;;;9.40;99.90;;;;;;5053513;28;20447;-70
2021/11/14 04:42:32;;;;;;;1.03;0.80;;;9.40;99.90;;;;;;5053638;28;20628;-71
2021/11/14 04:44:59;;;;;;;0.80;0.60;;;9.40;99.90;;;;;;5053522;28;20425;-70
2021/11/14 04:47:24;;;;;;;0.90;0.80;;;9.40;99.90;;;;;;5053789;28;20171;-71
2021/11/14 04:49:50;;;;;;;1.03;0.93;;;9.40;99.90;;;;;;5053333;28;20487;-72
2021/11/14 04:52:16;;;;;;;0.70;0.70;;;9.40;99.90;;;;;;5053458;28;20189;-72
2021/11/14 04:54:41;;;;;;;0.70;0.50;;;9.40;99.90;;;;;;5053645;28;20171;-71
2021/11/14 04:57:07;;;;;;;1.47;1.37;;;9.40;99.90;;;;;;5052968;28;20194;-71
2021/11/14 04:59:33;;;;;;;1.83;1.73;;;9.40;99.90;;;;;;5053521;28;20182;-71
2021/11/14 05:01:59;;;;;;;1.53;1.43;;;9.40;99.90;;;;;;5052915;28;20699;-71
2021/11/14 05:04:24;;;;;;;1.47;1.37;;;9.40;99.90;;;;;;5053482;28;20193;-71
2021/11/14 05:06:50;;;;;;;1.80;1.70;;;9.40;99.90;;;;;;5052749;28;20428;-71
2021/11/14 05:09:16;;;;;;;0.70;0.60;;;9.30;99.90;;;;;;5053271;28;20785;-71
2021/11/14 05:11:42;;;;;;;1.07;0.83;;;9.30;99.90;;;;;;5052805;28;20436;-72
2021/11/14 05:14:07;;;;;;;1.37;0.70;;;9.30;99.90;;;;;;5053364;28;20240;-71
2021/11/14 05:16:33;;;;;;;1.27;1.17;;;9.30;99.90;;;;;;5052686;28;20281;-71
2021/11/14 05:18:58;;;;;;;0.80;0.73;;;9.30;99.90;;;;;;5052977;28;20552;-71
2021/11/14 05:21:24;;;;;;;1.20;1.10;;;9.30;99.90;;;;;;5052404;28;20182;-72
2021/11/14 05:23:49;;;;;;;0.70;0.50;;;9.30;99.90;;;;;;5052884;28;20179;-71
2021/11/14 05:26:15;;;;;;;0.70;0.60;;;9.30;99.90;;;;;;5052666;28;20179;-71
2021/11/14 05:28:41;;;;;;;0.70;0.50;;;9.30;99.90;;;;;;5053212;28;20678;-71
2021/11/14 05:31:08;;;;;;;0.70;0.60;;;9.30;99.90;;;;;;5052327;28;20175;-71
2021/11/14 05:33:34;;;;;;;0.90;0.63;;;9.30;99.90;;;;;;5051896;28;20422;-71
2021/11/14 05:36:00;;;;;;;1.10;0.60;;;9.30;99.90;;;;;;5033306;28;20458;-71
2021/11/14 05:38:26;;;;;;;0.70;0.50;;;9.30;99.90;;;;;;5033053;28;20484;-71
2021/11/14 05:40:52;;;;;;;0.70;0.50;;;9.30;99.90;;;;;;5033464;28;20741;-71
2021/11/14 05:43:17;;;;;;;0.70;0.60;;;9.30;99.90;;;;;;5046705;28;20467;-71
2021/11/14 05:45:43;;;;;;;0.70;0.50;;;9.30;99.90;;;;;;5052774;28;20205;-71
2021/11/14 05:48:09;;;;;;;1.13;1.00;;;9.30;99.90;;;;;;5051454;28;20285;-70
2021/11/14 05:50:36;;;;;;;0.70;0.50;;;9.30;99.90;;;;;;5052522;28;20496;-70
2021/11/14 05:53:02;;;;;;;0.70;0.47;;;9.30;99.90;;;;;;5052323;28;20193;-70
2021/11/14 05:55:27;;;;;;;0.70;0.60;;;9.30;99.90;;;;;;5052270;28;20790;-71
2021/11/14 05:57:59;;;;;;;1.00;0.90;;;9.30;99.90;;;;;;5052346;28;20444;-70
2021/11/14 06:00:38;;;;;;;0.70;0.60;;;9.30;99.90;;;;;;5052224;28;20218;-70
2021/11/14 06:03:11;;;;;;;0.70;0.50;;;9.30;99.90;;;;;;5052315;28;20424;-70
2021/11/14 06:05:39;;;;;;;1.87;1.77;;;9.20;99.90;;;;;;5052051;28;20428;-70
2021/11/14 06:08:08;;;;;;;1.33;0.70;;;9.30;99.90;;;;;;5052261;28;20476;-71
2021/11/14 06:10:34;;;;;;;0.70;0.60;;;9.20;99.90;;;;;;5067786;28;20417;-71
2021/11/14 06:13:00;;;;;;;0.73;0.70;;;9.20;99.90;;;;;;5050771;28;20436;-70
2021/11/14 06:15:26;;;;;;;0.70;0.57;;;9.20;99.90;;;;;;5051980;28;20453;-70
2021/11/14 06:17:52;;;;;;;0.80;0.73;;;9.20;99.90;;;;;;5054176;28;20401;-70
2021/11/14 06:20:18;;;;;;;0.90;0.77;;;9.20;99.90;;;;;;5051825;28;20424;-70
2021/11/14 06:22:44;;;;;;;1.67;0.70;;;9.20;99.90;;;;;;5051897;28;20183;-71
2021/11/14 06:25:10;;;;;;;0.70;0.60;;;9.20;99.90;;;;;;5051767;28;20433;-71
2021/11/14 06:27:36;;;;;;;0.93;0.83;;;9.20;99.90;;;;;;5050808;28;20440;-71
2021/11/14 06:30:05;;;;;;;0.80;0.70;;;9.10;99.90;;;;;;5052418;28;20448;-71
2021/11/14 06:32:30;;;;;;;0.70;0.50;;;9.10;99.90;;;;;;5062987;28;20418;-70
2021/11/14 06:34:56;;;;;;;0.70;0.70;;;9.00;99.90;;;;;;5050588;28;20417;-70
2021/11/14 06:37:22;;;;;;;0.70;0.50;;;9.00;99.90;;;;;;5051866;28;20316;-70
2021/11/14 06:39:48;;;;;;;0.80;0.70;;;9.00;99.90;;;;;;5051819;28;20206;-70
2021/11/14 06:42:16;;;;;;;0.87;0.77;;;9.00;99.90;;;;;;5051964;28;20170;-70
2021/11/14 06:44:42;;;;;;;0.70;0.50;;;8.80;99.90;;;;;;5051760;28;20540;-70
2021/11/14 06:47:07;;;;;;;2.27;1.13;;;8.80;99.90;;;;;;5051306;28;20448;-70
2021/11/14 06:49:33;;;;;;;0.80;0.80;;;8.90;99.90;;;;;;5051959;28;20207;-70
2021/11/14 06:51:59;;;;;;;0.70;0.60;;;8.90;99.90;;;;;;5056029;28;20179;-70
2021/11/14 06:54:25;;;;;;;0.70;0.60;;;8.90;99.90;;;;;;5055994;28;20209;-71
2021/11/14 06:56:50;;;;;;;1.63;0.70;;;8.80;99.90;;;;;;5055659;28;20198;-71
2021/11/14 06:59:16;;;;;;;0.70;0.50;;;8.80;99.90;;;;;;5056050;28;20182;-71
2021/11/14 07:01:41;;;;;;;1.00;0.77;;;8.80;99.90;;;;;;5056605;28;20292;-71
2021/11/14 07:04:07;;;;;;;0.70;0.50;;;8.90;99.90;;;;;;5055932;28;20167;-71
2021/11/14 07:06:32;;;;;;;1.80;1.53;;;8.80;99.90;;;;;;5056089;28;20171;-71
2021/11/14 07:08:58;;;;;;;1.17;0.70;;;8.80;99.90;;;;;;5055794;28;20197;-71
2021/11/14 07:11:23;;;;;;;0.70;0.50;;;8.90;99.90;;;;;;5055809;28;20683;-71
2021/11/14 07:13:49;;;;;;;1.53;1.43;;;8.80;99.90;;;;;;5055581;28;20175;-71
2021/11/14 07:16:15;;;;;;;1.57;1.17;;;8.80;99.90;;;;;;5055112;28;20234;-71
2021/11/14 07:18:41;;;;;;;0.70;0.50;;;8.90;99.90;;;;;;5055167;28;20205;-71
2021/11/14 07:21:06;;;;;;;0.90;0.87;;;8.90;99.90;;;;;;5054665;28;20166;-70
2021/11/14 07:23:32;;;;;;;0.70;0.50;;;9.00;99.90;;;;;;5055719;28;20167;-70
2021/11/14 07:25:57;;;;;;;2.30;2.20;;;9.00;99.90;;;;;;5055256;28;20171;-70
2021/11/14 07:28:23;;;;;;;1.10;0.90;;;9.00;99.90;;;;;;5055428;28;20277;-70
2021/11/14 07:30:48;;;;;;;0.80;0.77;;;9.00;99.90;;;;;;5054525;28;20183;-70
2021/11/14 07:33:14;;;;;;;0.80;0.70;;;9.00;99.90;;;;;;5055005;28;20390;-70
2021/11/14 07:35:40;;;;;;;0.70;0.50;;;9.10;99.90;;;;;;5054743;28;20195;-70
2021/11/14 07:38:05;;;;;;;1.23;1.23;;;9.00;99.90;;;;;;5055112;28;20241;-71
2021/11/14 07:40:32;;;;;;;0.70;0.50;;;9.10;99.90;;;;;;5054856;28;20185;-70
2021/11/14 07:42:57;;;;;;;1.20;1.10;;;9.10;99.90;;;;;;5054959;28;20254;-70
2021/11/14 07:45:25;;;;;;;1.03;0.73;;;9.20;99.90;;;;;;5054342;28;21158;-70
2021/11/14 07:47:51;;;;;;;0.70;0.60;;;9.10;99.90;;;;;;5054740;28;20420;-70
2021/11/14 07:50:19;;;;;;;1.20;1.03;;;9.10;99.90;;;;;;5054598;28;20451;-70
2021/11/14 07:52:45;;;;;;;0.90;0.80;;;9.20;99.90;;;;;;5070237;28;20421;-70
2021/11/14 07:55:12;;;;;;;1.80;1.70;;;9.30;99.90;;;;;;5054500;28;20500;-70
2021/11/14 07:57:43;;;;;;;6.80;1.37;;;9.40;99.90;;;;;;5055105;28;20440;-72
2021/11/14 08:00:10;;;;;;;0.97;0.90;;;9.40;99.90;;;;;;5056030;28;20999;-72
2021/11/14 08:02:35;;;;;;;0.80;0.80;;;9.40;99.90;;;;;;5056931;28;20421;-72
2021/11/14 08:05:01;;;;;;;1.80;1.70;;;9.30;99.90;;;;;;5055030;28;20424;-71
2021/11/14 08:07:27;;;;;;;0.70;0.50;;;9.30;99.90;;;;;;5054441;28;20789;-71
2021/11/14 08:09:53;;;;;;;0.80;0.80;;;9.30;99.90;;;;;;5053670;28;20201;-72
2021/11/14 08:12:18;;;;;;;0.70;0.67;;;9.30;99.90;;;;;;5053924;28;20434;-71
2021/11/14 08:14:44;;;;;;;1.17;0.70;;;9.30;99.90;;;;;;5054256;28;20179;-72
2021/11/14 08:17:09;;;;;;;1.00;0.90;;;9.40;99.90;;;;;;5053805;28;20233;-71
2021/11/14 08:19:35;;;;;;;0.70;0.50;;;9.50;99.90;;;;;;5052875;28;20659;-71
2021/11/14 08:22:01;;;;;;;0.70;0.60;;;9.70;99.90;;;;;;5053745;28;20202;-71
2021/11/14 08:24:26;;;;;;;4.63;1.27;;;9.90;99.90;;;;;;5054230;28;20175;-70
2021/11/14 08:26:52;;;;;;;0.90;0.80;;;10.00;99.90;;;;;;5053878;28;20618;-71
2021/11/14 08:29:17;;;;;;;1.43;1.33;;;10.10;99.90;;;;;;5054060;28;20697;-70
2021/11/14 08:31:43;;;;;;;0.80;0.70;;;10.10;99.90;;;;;;5053625;28;20555;-71
2021/11/14 08:34:08;;;;;;;1.97;0.70;;;10.20;99.90;;;;;;5053662;28;20189;-70
2021/11/14 08:36:34;;;;;;;0.87;0.80;;;10.30;99.90;;;;;;5053609;28;20189;-71
2021/11/14 08:39:00;;;;;;;0.80;0.70;;;10.60;99.90;;;;;;5053720;28;20276;-71
2021/11/14 08:41:26;;;;;;;0.70;0.50;;;10.90;99.90;;;;;;5053877;28;20174;-71
2021/11/14 08:43:52;;;;;;;1.40;1.13;;;11.10;99.90;;;;;;5053342;28;20421;-70
2021/11/14 08:46:18;;;;;;;0.70;0.50;;;11.50;99.90;;;;;;5053186;28;20843;-71
2021/11/14 08:48:44;;;;;;;0.70;0.60;;;11.60;99.90;;;;;;5054090;28;20435;-70
2021/11/14 08:51:10;;;;;;;0.80;0.70;;;11.50;99.90;;;;;;5052495;28;20295;-70
2021/11/14 08:53:35;;;;;;;0.70;0.50;;;11.30;99.90;;;;;;5053903;28;20171;-70
2021/11/14 08:56:02;;;;;;;0.80;0.60;;;11.40;99.90;;;;;;5053201;28;20214;-69
2021/11/14 08:58:28;;;;;;;2.43;2.33;;;11.30;99.90;;;;;;5053772;28;20210;-70
2021/11/14 09:00:54;;;;;;;0.80;0.77;;;11.20;99.90;;;;;;5053696;28;20420;-70
2021/11/14 09:03:20;;;;;;;0.70;0.60;;;11.10;99.90;;;;;;5053791;28;20414;-70
2021/11/14 09:05:46;;;;;;;0.90;0.60;;;11.20;99.90;;;;;;5053734;28;20171;-70
2021/11/14 09:08:12;;;;;;;1.13;0.90;;;11.10;99.90;;;;;;5053312;28;20448;-71
2021/11/14 09:10:43;;;;;;;2.30;0.83;;;11.20;99.90;;;;;;5052560;28;20425;-70
2021/11/14 09:13:09;;;;;;;1.20;0.97;;;11.10;99.90;;;;;;5052447;28;20450;-70
2021/11/14 09:15:35;;;;;;;2.70;0.90;;;11.20;99.90;;;;;;5053064;28;20523;-70
2021/11/14 09:18:01;;;;;;;0.70;0.50;;;11.10;99.90;;;;;;5053346;28;20652;-70
2021/11/14 09:20:27;;;;;;;0.87;0.87;;;11.30;99.90;;;;;;5052050;28;20171;-70
2021/11/14 09:22:53;;;;;;;0.70;0.50;;;11.30;99.90;;;;;;5053224;28;20174;-71
2021/11/14 09:25:23;;;;;;;0.70;0.50;;;11.30;99.90;;;;;;5052848;28;20402;-70
2021/11/14 09:27:49;;;;;;;0.90;0.60;;;11.30;99.90;;;;;;5052715;28;20458;-70
2021/11/14 09:30:16;;;;;;;1.30;0.70;;;11.30;99.90;;;;;;5051605;28;20479;-69
2021/11/14 09:32:42;;;;;;;0.70;0.60;;;11.50;99.90;;;;;;5068019;28;20422;-70
2021/11/14 09:35:08;;;;;;;2.27;2.17;;;11.70;99.90;;;;;;5052552;28;20805;-71
2021/11/14 09:37:35;;;;;;;1.10;0.90;;;11.70;99.90;;;;;;5052796;28;20195;-70
2021/11/14 09:40:00;;;;;;;0.70;0.50;;;11.70;99.90;;;;;;5052342;28;20475;-70
2021/11/14 09:42:27;;;;;;;1.10;1.10;;;11.90;99.90;;;;;;5052741;28;20906;-70
2021/11/14 09:44:54;;;;;;;0.80;0.60;;;12.00;99.90;;;;;;5051696;28;20693;-70
2021/11/14 09:47:21;;;;;;;1.03;0.90;;;11.90;99.90;;;;;;5052651;28;20805;-70
2021/11/14 09:49:47;;;;;;;0.73;0.60;;;12.10;99.90;;;;;;5052451;28;20973;-70
2021/11/14 09:52:12;;;;;;;0.70;0.50;;;12.20;99.90;;;;;;5052398;28;20438;-70
2021/11/14 09:54:40;;;;;;;0.87;0.87;;;12.40;99.90;;;;;;5052579;28;20208;-70
2021/11/14 09:57:06;;;;;;;3.13;0.90;;;12.40;99.90;;;;;;5052011;28;20698;-69
2021/11/14 09:59:32;;;;;;;0.70;0.50;;;12.40;99.90;;;;;;5051515;28;20432;-69
2021/11/14 10:02:00;;;;;;;0.70;0.50;;;12.60;99.90;;;;;;5051678;28;20504;-69
2021/11/14 10:04:26;;;;;;;0.70;0.50;;;12.60;99.90;;;;;;5050939;28;20166;-69
2021/11/14 10:07:02;;;;;;;0.80;0.60;;;12.30;99.90;;;;;;5052571;28;20926;-70
2021/11/14 10:09:33;;;;;;;0.87;0.80;;;12.30;99.90;;;;;;5052011;28;20441;-69
2021/11/14 10:12:10;;;;;;;0.90;0.67;;;12.40;99.90;;;;;;5050679;28;20504;-70
2021/11/14 10:14:36;;;;;;;0.93;0.70;;;12.50;99.90;;;;;;5051770;28;20470;-70
2021/11/14 10:17:23;;;;;;;0.80;0.70;;;12.60;99.90;;;;;;5057203;28;20457;-70
2021/11/14 10:20:04;;;;;;;0.70;0.50;;;12.60;99.90;;;;;;5032220;28;20195;-70
2021/11/14 10:22:30;;;;;;;0.70;0.50;;;12.50;99.90;;;;;;5064070;28;20416;-70
2021/11/14 10:24:57;;;;;;;1.63;1.07;;;12.20;99.90;;;;;;5051677;28;20401;-70
2021/11/14 10:27:27;;;;;;;0.73;0.67;;;12.10;99.90;;;;;;5061117;28;20416;-70
2021/11/14 10:29:54;;;;;;;1.27;1.17;;;12.20;99.90;;;;;;5051797;28;20502;-70
2021/11/14 10:32:20;;;;;;;1.27;1.17;;;12.00;99.90;;;;;;5051773;28;20805;-70
2021/11/14 10:34:49;;;;;;;0.70;0.50;;;11.80;99.90;;;;;;5051687;28;20423;-69
2021/11/14 10:37:17;;;;;;;0.70;0.50;;;11.80;99.90;;;;;;5051671;28;20441;-70
2021/11/14 10:39:43;;;;;;;0.70;0.50;;;11.70;99.90;;;;;;5051118;28;20468;-70
2021/11/14 10:42:15;;;;;;;1.00;0.73;;;11.80;99.90;;;;;;5052224;28;20394;-70
2021/11/14 10:44:50;;;;;;;0.80;0.70;;;11.80;99.90;;;;;;5050352;28;20170;-70
2021/11/14 10:47:22;;;;;;;0.70;0.50;;;11.60;99.90;;;;;;5051025;28;20413;-70
2021/11/14 10:49:57;;;;;;;0.70;0.50;;;11.60;99.90;;;;;;5051344;28;20531;-70
2021/11/14 10:52:30;;;;;;;0.70;0.60;;;11.40;99.90;;;;;;5051774;28;20890;-70
2021/11/14 10:54:59;;;;;;;0.70;0.50;;;11.50;99.90;;;;;;5051524;28;20470;-70
2021/11/14 10:57:27;;;;;;;0.80;0.80;;;11.50;99.90;;;;;;5049740;28;21000;-70
2021/11/14 10:59:54;;;;;;;0.70;0.50;;;11.70;99.90;;;;;;5051426;28;20428;-70
2021/11/14 11:02:21;;;;;;;0.70;0.60;;;11.70;99.90;;;;;;5051693;28;20987;-70
2021/11/14 11:04:47;;;;;;;0.70;0.50;;;11.80;99.90;;;;;;5051389;28;20913;-70
2021/11/14 11:07:13;;;;;;;0.70;0.50;;;11.70;99.90;;;;;;5051649;28;20409;-70
2021/11/14 11:09:40;;;;;;;0.70;0.50;;;11.80;99.90;;;;;;5050608;28;20464;-70
2021/11/14 11:12:19;;;;;;;1.67;1.57;;;11.80;99.90;;;;;;5051446;28;20846;-71
2021/11/14 11:14:52;;;;;;;1.43;0.90;;;11.80;99.90;;;;;;5051517;28;20964;-70
2021/11/14 11:17:18;;;;;;;0.70;0.50;;;11.80;99.90;;;;;;5051384;28;20476;-71
2021/11/14 11:19:43;;;;;;;0.80;0.60;;;11.80;99.90;;;;;;5051118;28;20425;-70
2021/11/14 11:22:09;;;;;;;0.70;0.50;;;11.60;99.90;;;;;;5050787;28;20173;-71
2021/11/14 11:24:35;;;;;;;1.77;1.40;;;11.60;99.90;;;;;;5051232;28;20683;-70
2021/11/14 11:27:06;;;;;;;0.70;0.50;;;11.60;99.90;;;;;;5051151;28;20201;-71
2021/11/14 11:29:33;;;;;;;1.03;0.90;;;11.70;99.90;;;;;;5050896;28;20205;-70
2021/11/14 11:31:59;;;;;;;0.70;0.60;;;11.70;99.90;;;;;;5051400;28;20770;-71
2021/11/14 11:34:25;;;;;;;0.70;0.60;;;11.80;99.90;;;;;;5051471;28;20401;-70
2021/11/14 11:36:55;;;;;;;0.90;0.90;;;12.10;99.90;;;;;;5052798;28;20198;-70
2021/11/14 11:39:22;;;;;;;0.70;0.50;;;12.10;99.90;;;;;;5054895;28;20429;-70
2021/11/14 11:41:50;;;;;;;0.90;0.60;;;12.30;99.90;;;;;;5055020;28;20836;-70
2021/11/14 11:44:17;;;;;;;0.70;0.60;;;12.40;99.90;;;;;;5054851;28;20409;-70
2021/11/14 11:46:48;;;;;;;0.70;0.50;;;12.40;99.90;;;;;;5054159;28;20413;-70
2021/11/14 11:49:20;;;;;;;0.70;0.50;;;12.50;99.90;;;;;;5053533;28;20437;-70
2021/11/14 11:51:51;;;;;;;2.20;1.10;;;12.60;99.90;;;;;;5055001;28;20405;-70
2021/11/14 11:54:25;;;;;;;0.70;0.60;;;12.80;99.90;;;;;;5054457;28;20540;-70
2021/11/14 11:56:56;;;;;;;0.70;0.60;;;13.00;99.90;;;;;;5054017;28;20810;-70
2021/11/14 11:59:37;;;;;;;0.70;0.50;;;13.30;99.90;;;;;;5050941;28;20429;-70
2021/11/14 12:02:10;;;;;;;0.80;0.60;;;13.40;99.90;;;;;;5054510;28;20409;-70
2021/11/14 12:04:41;;;;;;;0.80;0.77;;;13.50;99.90;;;;;;5054192;28;20427;-70
2021/11/14 12:07:13;;;;;;;0.70;0.50;;;13.80;99.90;;;;;;5054880;28;20420;-70
2021/11/14 12:09:48;;;;;;;0.90;0.83;;;14.60;99.90;;;;;;5054108;28;20472;-70
2021/11/14 12:12:28;;;;;;;0.70;0.50;;;16.50;99.90;;;;;;5054589;28;20950;-70
2021/11/14 12:15:06;;;;;;;0.70;0.50;;;17.50;99.90;;;;;;5053629;28;20449;-70
2021/11/14 12:17:32;;;;;;;0.93;0.80;;;18.60;99.90;;;;;;5054115;28;20441;-71
2021/11/14 12:20:13;;;;;;;0.90;0.70;;;19.90;99.90;;;;;;5055214;28;20448;-70
2021/11/14 12:22:44;;;;;;;0.80;0.70;;;20.90;98.30;;;;;;5055122;28;20437;-70
2021/11/14 12:25:30;;;;;;;2.30;0.60;;;22.30;93.30;;;;;;5071460;28;20542;-71
2021/11/14 12:28:03;;;;;;;1.00;0.73;;;23.10;74.00;;;;;;5066955;28;20958;-71
2021/11/14 12:30:30;;;;;;;0.80;0.60;;;22.60;68.10;;;;;;5054120;28;20402;-71
2021/11/14 12:32:56;;;;;;;0.80;0.60;;;21.90;73.60;;;;;;5053822;28;20420;-71
2021/11/14 12:35:26;;;;;;;0.80;0.70;;;20.50;80.80;;;;;;5053752;28;20401;-71
2021/11/14 12:37:56;;;;;;;0.70;0.50;;;19.40;95.80;;;;;;5052637;28;20496;-70
2021/11/14 12:40:37;;;;;;;1.10;0.70;;;18.50;99.90;;;;;;5062945;28;21120;-70
2021/11/14 12:43:11;;;;;;;0.80;0.70;;;18.40;99.90;;;;;;5069452;28;20759;-70
2021/11/14 12:45:57;;;;;;;0.80;0.70;;;18.00;99.90;;;;;;5052257;28;20475;-71
2021/11/14 12:48:25;;;;;;;0.80;0.73;;;17.10;99.90;;;;;;5052556;28;20417;-70
2021/11/14 12:51:07;;;;;;;0.73;0.57;;;16.20;99.90;;;;;;5053113;28;20409;-70
2021/11/14 12:54:10;;;;;;;0.93;0.83;;;15.40;99.90;;;;;;5033763;28;20904;-70